createdAt,value
2023-01-27T00:00:42.688Z,92536.00
2023-01-27T00:01:43.352Z,92538.00
2023-01-27T00:02:42.581Z,92538.00
2023-01-27T00:03:42.505Z,92542.00
2023-01-27T00:04:42.424Z,92544.00
2023-01-27T00:05:42.371Z,92542.00
2023-01-27T00:06:42.314Z,92544.00
2023-01-27T00:07:42.239Z,92544.00
2023-01-27T00:08:42.190Z,92550.00
2023-01-27T00:09:42.131Z,92548.00
2023-01-27T00:10:42.067Z,92548.00
2023-01-27T00:11:42.007Z,92548.00
2023-01-27T00:12:41.940Z,92548.00
2023-01-27T00:13:41.881Z,92546.00
2023-01-27T00:14:41.825Z,92548.00
2023-01-27T00:15:41.845Z,92548.00
2023-01-27T00:16:41.699Z,92544.00
2023-01-27T00:17:41.642Z,92544.00
2023-01-27T00:18:41.572Z,92544.00
2023-01-27T00:19:41.585Z,92546.00
2023-01-27T00:20:41.459Z,92546.00
2023-01-27T00:21:41.432Z,92548.00
2023-01-27T02:31:35.353Z,92565.00
2023-01-27T02:57:33.945Z,92559.00
2023-01-27T02:58:33.887Z,92559.00
2023-01-27T02:59:33.837Z,92559.00
2023-01-27T03:00:33.774Z,92561.00
2023-01-27T03:01:33.811Z,92561.00
2023-01-27T03:02:33.712Z,92563.00
2023-01-27T03:03:33.627Z,92567.00
2023-01-27T03:04:33.576Z,92569.00
2023-01-27T03:05:33.504Z,92571.00
2023-01-27T03:06:33.464Z,92569.00
2023-01-27T03:07:33.436Z,92569.00
2023-01-27T03:08:33.348Z,92565.00
2023-01-27T03:09:33.301Z,92565.00
2023-01-27T03:10:33.230Z,92565.00
2023-01-27T03:11:33.180Z,92569.00
2023-01-27T03:12:33.149Z,92571.00
2023-01-27T03:13:33.138Z,92573.00
2023-01-27T03:15:32.996Z,92585.00
2023-01-27T03:16:32.913Z,92575.00
2023-01-27T03:17:32.857Z,92577.00
2023-01-27T03:18:32.820Z,92575.00
2023-01-27T03:19:32.747Z,92569.00
2023-01-27T03:20:32.711Z,92567.00
2023-01-27T03:21:32.660Z,92567.00
2023-01-27T03:22:32.623Z,92567.00
2023-01-27T03:23:32.554Z,92569.00
2023-01-27T03:24:32.512Z,92569.00
2023-01-27T03:25:32.454Z,92569.00
2023-01-27T03:26:32.384Z,92569.00
2023-01-27T03:27:32.337Z,92569.00
2023-01-27T03:41:31.741Z,92573.00
2023-01-27T03:42:31.699Z,92573.00
2023-01-27T03:43:31.653Z,92573.00
2023-01-27T03:45:31.585Z,92577.00
2023-01-27T03:46:31.576Z,92585.00
2023-01-27T03:48:31.461Z,92577.00
2023-01-27T03:49:31.443Z,92577.00
2023-01-27T05:25:26.703Z,92563.00
2023-01-27T05:26:26.611Z,92561.00
2023-01-27T05:27:26.622Z,92557.00
2023-01-27T05:28:27.743Z,92555.00
2023-01-27T05:29:26.423Z,92557.00
2023-01-27T05:30:26.382Z,92555.00
2023-01-27T05:31:26.478Z,92555.00
2023-01-27T05:32:26.250Z,92557.00
2023-01-27T05:33:26.202Z,92557.00
2023-01-27T05:34:26.947Z,92557.00
2023-01-27T05:35:26.102Z,92559.00
2023-01-27T05:36:26.053Z,92559.00
2023-01-27T05:37:26.000Z,92561.00
2023-01-27T05:38:25.980Z,92559.00
2023-01-27T05:39:25.919Z,92557.00
2023-01-27T05:40:25.855Z,92559.00
2023-01-27T05:41:25.810Z,92559.00
2023-01-27T05:42:25.745Z,92557.00
2023-01-27T05:43:25.684Z,92559.00
2023-01-27T05:44:25.624Z,92557.00
2023-01-27T05:45:25.565Z,92557.00
2023-01-27T05:46:25.566Z,92557.00
2023-01-27T05:47:25.433Z,92559.00
2023-01-27T05:48:25.393Z,92561.00
2023-01-27T05:49:25.324Z,92561.00
2023-01-27T05:50:25.247Z,92561.00
2023-01-27T05:51:25.202Z,92565.00
2023-01-27T05:52:25.214Z,92563.00
2023-01-27T05:53:25.088Z,92563.00
2023-01-27T05:54:25.019Z,92563.00
2023-01-27T05:55:24.979Z,92565.00
2023-01-27T05:56:24.914Z,92561.00
2023-01-27T05:57:24.855Z,92561.00
2023-01-27T05:58:24.815Z,92559.00
2023-01-27T05:59:24.730Z,92557.00
2023-01-27T06:00:24.666Z,92557.00
2023-01-27T06:01:24.612Z,92555.00
2023-01-27T06:02:24.574Z,92557.00
2023-01-27T06:03:24.568Z,92554.00
2023-01-27T06:04:24.455Z,92557.00
2023-01-27T06:05:24.395Z,92555.00
2023-01-27T06:06:24.340Z,92554.00
2023-01-27T06:07:24.280Z,92554.00
2023-01-27T06:08:24.215Z,92552.00
2023-01-27T06:09:24.162Z,92550.00
2023-01-27T06:10:24.102Z,92550.00
2023-01-27T06:11:24.189Z,92548.00
2023-01-27T06:12:23.979Z,92548.00
2023-01-27T06:13:24.470Z,92552.00
2023-01-27T06:14:23.962Z,92552.00
2023-01-27T06:15:23.804Z,92552.00
2023-01-27T06:16:23.815Z,92550.00
2023-01-27T06:17:23.686Z,92548.00
2023-01-27T06:18:23.673Z,92548.00
2023-01-27T06:19:23.590Z,92552.00
2023-01-27T06:20:23.526Z,92552.00
2023-01-27T06:21:23.472Z,92555.00
2023-01-27T06:22:23.421Z,92557.00
2023-01-27T06:23:23.398Z,92555.00
2023-01-27T06:24:23.349Z,92544.00
2023-01-27T06:25:23.239Z,92559.00
2023-01-27T06:26:23.212Z,92563.00
2023-01-27T06:27:23.197Z,92567.00
2023-01-27T06:28:29.260Z,92575.00
2023-01-27T06:29:24.109Z,92571.00
2023-01-27T06:30:23.039Z,92569.00
2023-01-27T06:31:23.976Z,92575.00
2023-01-27T06:32:22.912Z,92585.00
2023-01-27T06:33:22.860Z,92587.00
2023-01-27T06:34:22.782Z,92587.00
2023-01-27T06:35:22.724Z,92585.00
2023-01-27T06:36:22.980Z,92587.00
2023-01-27T06:37:22.573Z,92589.00
2023-01-27T06:38:22.543Z,92589.00
2023-01-27T06:39:22.451Z,92585.00
2023-01-27T06:40:22.354Z,92577.00
2023-01-27T06:41:22.280Z,92575.00
2023-01-27T06:42:22.215Z,92585.00
2023-01-27T06:43:22.987Z,92587.00
2023-01-27T06:44:22.904Z,92587.00
2023-01-27T06:45:22.041Z,92587.00
2023-01-27T06:46:22.049Z,92589.00
2023-01-27T06:47:21.932Z,92587.00
2023-01-27T06:48:21.869Z,92587.00
2023-01-27T06:49:22.824Z,92589.00
2023-01-27T06:50:21.700Z,92589.00
2023-01-27T06:51:21.615Z,92591.00
2023-01-27T06:52:22.477Z,92592.00
2023-01-27T06:53:21.984Z,92591.00
2023-01-27T07:03:20.698Z,92604.00
2023-01-27T07:04:20.619Z,92608.00
2023-01-27T07:05:20.526Z,92606.00
2023-01-27T07:08:20.413Z,92616.00
2023-01-27T07:09:20.234Z,92618.00
2023-01-27T07:10:20.139Z,92624.00
2023-01-27T07:11:20.066Z,92624.00
2023-01-27T07:12:20.069Z,92626.00
2023-01-27T07:13:19.924Z,92626.00
2023-01-27T07:14:19.851Z,92626.00
2023-01-27T07:15:20.483Z,92630.00
2023-01-27T07:16:19.828Z,92632.00
2023-01-27T07:17:19.739Z,92630.00
2023-01-27T07:18:19.753Z,92628.00
2023-01-27T07:19:19.995Z,92630.00
2023-01-27T07:20:19.645Z,92632.00
2023-01-27T07:21:19.995Z,92630.00
2023-01-27T07:22:19.577Z,92630.00
2023-01-27T07:23:19.579Z,92634.00
2023-01-27T07:24:19.602Z,92636.00
2023-01-27T07:25:19.576Z,92638.00
2023-01-27T07:26:25.143Z,92636.00
2023-01-27T07:27:20.462Z,92636.00
2023-01-27T07:28:21.010Z,92636.00
2023-01-27T07:29:19.306Z,92638.00
2023-01-27T07:30:19.321Z,92638.00
2023-01-27T07:31:19.252Z,92638.00
2023-01-27T07:32:20.089Z,92639.00
2023-01-27T07:33:20.016Z,92641.00
2023-01-27T07:34:18.934Z,92639.00
2023-01-27T07:35:18.872Z,92638.00
2023-01-27T07:36:18.785Z,92639.00
2023-01-27T07:37:18.783Z,92641.00
2023-01-27T07:38:18.679Z,92639.00
2023-01-27T07:39:18.538Z,92639.00
2023-01-27T07:40:18.478Z,92639.00
2023-01-27T07:41:18.387Z,92641.00
2023-01-27T07:42:18.318Z,92641.00
2023-01-27T07:43:18.241Z,92639.00
2023-01-27T07:44:18.154Z,92641.00
2023-01-27T07:45:18.080Z,92643.00
2023-01-27T07:46:17.990Z,92641.00
2023-01-27T07:47:17.912Z,92641.00
2023-01-27T07:48:17.856Z,92641.00
2023-01-27T07:49:18.488Z,92641.00
2023-01-27T07:50:17.697Z,92643.00
2023-01-27T07:51:17.677Z,92641.00
2023-01-27T07:52:17.531Z,92643.00
2023-01-27T07:53:17.451Z,92647.00
2023-01-27T07:54:17.375Z,92647.00
2023-01-27T07:55:17.313Z,92647.00
2023-01-27T07:56:17.264Z,92645.00
2023-01-27T07:57:17.227Z,92647.00
2023-01-27T07:58:17.220Z,92647.00
2023-01-27T07:59:17.211Z,92645.00
2023-01-27T08:00:17.198Z,92647.00
2023-01-27T08:01:17.273Z,92647.00
2023-01-27T08:02:17.181Z,92649.00
2023-01-27T08:03:17.307Z,92647.00
2023-01-27T08:04:17.160Z,92647.00
2023-01-27T08:05:17.154Z,92651.00
2023-01-27T08:06:17.132Z,92651.00
2023-01-27T08:07:17.103Z,92651.00
2023-01-27T08:08:17.999Z,92649.00
2023-01-27T08:09:17.068Z,92653.00
2023-01-27T08:10:17.066Z,92651.00
2023-01-27T08:11:17.039Z,92653.00
2023-01-27T08:12:17.024Z,92649.00
2023-01-27T08:13:17.018Z,92649.00
2023-01-27T08:14:16.999Z,92653.00
2023-01-27T08:15:19.034Z,92657.00
2023-01-27T08:16:16.997Z,92661.00
2023-01-27T08:17:16.933Z,92657.00
2023-01-27T08:18:16.929Z,92661.00
2023-01-27T08:19:16.915Z,92663.00
2023-01-27T08:20:16.891Z,92663.00
2023-01-27T08:21:16.858Z,92659.00
2023-01-27T08:22:16.817Z,92657.00
2023-01-27T08:23:16.736Z,92653.00
2023-01-27T08:24:16.723Z,92657.00
2023-01-27T08:25:16.627Z,92659.00
2023-01-27T08:26:16.575Z,92659.00
2023-01-27T08:27:16.513Z,92657.00
2023-01-27T08:28:16.433Z,92661.00
2023-01-27T08:29:17.012Z,92663.00
2023-01-27T08:30:16.380Z,92667.00
2023-01-27T08:31:16.402Z,92667.00
2023-01-27T08:32:16.245Z,92667.00
2023-01-27T08:33:16.243Z,92669.00
2023-01-27T08:34:17.033Z,92665.00
2023-01-27T08:35:16.215Z,92663.00
2023-01-27T08:36:18.102Z,92661.00
2023-01-27T08:37:16.195Z,92661.00
2023-01-27T08:38:16.173Z,92659.00
2023-01-27T08:39:16.167Z,92663.00
2023-01-27T08:40:16.148Z,92663.00
2023-01-27T08:41:17.088Z,92665.00
2023-01-27T08:42:16.125Z,92667.00
2023-01-27T08:43:16.117Z,92665.00
2023-01-27T08:44:16.120Z,92667.00
2023-01-27T08:45:16.106Z,92669.00
2023-01-27T08:46:17.043Z,92667.00
2023-01-27T08:47:16.075Z,92667.00
2023-01-27T08:48:16.060Z,92667.00
2023-01-27T08:49:17.017Z,92669.00
2023-01-27T08:50:16.244Z,92667.00
2023-01-27T08:51:15.991Z,92669.00
2023-01-27T08:52:15.969Z,92671.00
2023-01-27T08:53:15.943Z,92673.00
2023-01-27T08:54:15.926Z,92671.00
2023-01-27T08:55:15.901Z,92675.00
2023-01-27T08:56:15.877Z,92673.00
2023-01-27T08:57:15.853Z,92675.00
2023-01-27T08:58:15.876Z,92673.00
2023-01-27T08:59:15.776Z,92673.00
2023-01-27T09:00:16.056Z,92677.00
2023-01-27T09:01:15.784Z,92679.00
2023-01-27T09:02:15.698Z,92679.00
2023-01-27T09:03:15.674Z,92677.00
2023-01-27T09:04:15.681Z,92675.00
2023-01-27T09:05:15.579Z,92675.00
2023-01-27T09:06:15.575Z,92673.00
2023-01-27T09:15:16.034Z,92675.00
2023-01-27T10:51:10.340Z,92657.00
2023-01-27T10:52:10.333Z,92655.00
2023-01-27T10:53:10.319Z,92655.00
2023-01-27T10:54:10.309Z,92651.00
2023-01-27T10:55:10.288Z,92647.00
2023-01-27T10:56:10.331Z,92645.00
2023-01-27T10:57:10.263Z,92647.00
2023-01-27T10:58:10.257Z,92645.00
2023-01-27T11:00:57.503Z,92645.00
2023-01-27T11:02:10.029Z,92645.00
2023-01-27T11:03:09.841Z,92647.00
2023-01-27T11:04:10.637Z,92647.00
2023-01-27T11:05:09.709Z,92649.00
2023-01-27T11:06:09.619Z,92649.00
2023-01-27T11:07:09.521Z,92651.00
2023-01-27T11:08:10.070Z,92653.00
2023-01-27T11:09:09.364Z,92653.00
2023-01-27T11:10:09.350Z,92651.00
2023-01-27T11:11:09.179Z,92653.00
2023-01-27T11:12:09.098Z,92657.00
2023-01-27T11:13:09.013Z,92655.00
2023-01-27T11:14:09.027Z,92649.00
2023-01-27T11:15:08.849Z,92647.00
2023-01-27T11:16:08.815Z,92651.00
2023-01-27T11:17:08.698Z,92651.00
2023-01-27T11:18:09.566Z,92655.00
2023-01-27T11:19:09.487Z,92655.00
2023-01-27T11:20:08.473Z,92651.00
2023-01-27T11:21:08.361Z,92653.00
2023-01-27T11:22:09.157Z,92649.00
2023-01-27T11:23:08.200Z,92651.00
2023-01-27T11:24:08.172Z,92653.00
2023-01-27T11:25:08.047Z,92651.00
2023-01-27T11:26:07.982Z,92651.00
2023-01-27T11:27:07.950Z,92651.00
2023-01-27T11:28:07.910Z,92655.00
2023-01-27T11:29:07.876Z,92657.00
2023-01-27T11:30:08.038Z,92655.00
2023-01-27T11:31:07.836Z,92657.00
2023-01-27T11:32:07.793Z,92657.00
2023-01-27T11:33:07.735Z,92657.00
2023-01-27T11:34:07.694Z,92657.00
2023-01-27T11:35:08.626Z,92661.00
2023-01-27T11:36:07.587Z,92659.00
2023-01-27T11:37:07.561Z,92657.00
2023-01-27T11:38:15.330Z,92655.00
2023-01-27T11:39:08.441Z,92655.00
2023-01-27T11:40:07.346Z,92651.00
2023-01-27T11:41:07.256Z,92647.00
2023-01-27T11:42:07.167Z,92649.00
2023-01-27T11:43:07.077Z,92645.00
2023-01-27T11:44:06.990Z,92645.00
2023-01-27T11:45:06.899Z,92643.00
2023-01-27T11:46:06.937Z,92643.00
2023-01-27T11:47:06.718Z,92643.00
2023-01-27T11:48:06.700Z,92639.00
2023-01-27T11:49:06.576Z,92639.00
2023-01-27T11:50:06.506Z,92636.00
2023-01-27T11:51:06.410Z,92634.00
2023-01-27T11:52:06.996Z,92632.00
2023-01-27T11:53:06.229Z,92632.00
2023-01-27T11:54:06.153Z,92630.00
2023-01-27T11:55:06.047Z,92626.00
2023-01-27T11:56:05.977Z,92628.00
2023-01-27T11:57:05.914Z,92628.00
2023-01-27T11:58:05.870Z,92624.00
2023-01-27T11:59:05.830Z,92622.00
2023-01-27T12:00:05.769Z,92620.00
2023-01-27T12:01:05.764Z,92622.00
2023-01-27T12:02:05.641Z,92616.00
2023-01-27T12:03:05.612Z,92624.00
2023-01-27T12:04:05.654Z,92620.00
2023-01-27T12:26:05.600Z,92604.00
2023-01-27T12:45:03.622Z,92571.00
2023-01-27T12:46:03.567Z,92567.00
2023-01-27T12:47:03.523Z,92563.00
2023-01-27T12:48:03.465Z,92565.00
2023-01-27T12:49:03.417Z,92567.00
2023-01-27T12:50:03.432Z,92565.00
2023-01-27T12:51:03.329Z,92569.00
2023-01-27T12:52:03.293Z,92563.00
2023-01-27T12:53:03.254Z,92565.00
2023-01-27T12:54:03.216Z,92565.00
2023-01-27T12:55:03.157Z,92565.00
2023-01-27T12:56:03.121Z,92567.00
2023-01-27T12:57:03.070Z,92567.00
2023-01-27T12:58:03.029Z,92563.00
2023-01-27T12:59:02.994Z,92565.00
2023-01-27T13:00:02.951Z,92565.00
2023-01-27T13:01:02.966Z,92567.00
2023-01-27T13:02:03.765Z,92567.00
2023-01-27T13:03:02.941Z,92569.00
2023-01-27T13:04:02.855Z,92571.00
2023-01-27T13:05:02.791Z,92571.00
2023-01-27T13:06:02.742Z,92571.00
2023-01-27T13:07:03.522Z,92575.00
2023-01-27T13:08:02.686Z,92573.00
2023-01-27T13:09:02.651Z,92575.00
2023-01-27T13:10:03.603Z,92577.00
2023-01-27T13:11:02.571Z,92585.00
2023-01-27T13:12:02.541Z,92585.00
2023-01-27T13:13:02.533Z,92589.00
2023-01-27T13:14:02.480Z,92587.00
2023-01-27T13:15:02.502Z,92591.00
2023-01-27T13:16:03.109Z,92592.00
2023-01-27T13:17:02.379Z,92592.00
2023-01-27T13:19:02.313Z,92591.00
2023-01-27T14:33:00.193Z,92612.00
2023-01-27T18:47:56.051Z,92777.00
2023-01-27T18:48:56.002Z,92777.00
2023-01-27T18:49:55.948Z,92777.00
2023-01-27T18:51:55.892Z,92779.00
2023-01-27T18:52:55.848Z,92779.00
2023-01-27T18:53:55.801Z,92779.00
2023-01-27T18:54:55.764Z,92779.00
2023-01-27T18:55:55.741Z,92779.00
2023-01-27T18:56:55.672Z,92781.00
2023-01-27T18:57:55.631Z,92783.00
2023-01-27T18:58:55.602Z,92787.00
2023-01-27T18:59:55.551Z,92788.00
2023-01-27T19:21:54.402Z,92790.00
2023-01-27T19:23:54.370Z,92796.00
2023-01-27T19:24:54.234Z,92796.00
2023-01-27T19:25:54.184Z,92800.00
2023-01-27T19:26:54.116Z,92796.00
2023-01-27T19:27:54.083Z,92796.00
2023-01-27T19:28:54.008Z,92796.00
2023-01-27T19:29:53.961Z,92798.00
2023-01-27T19:30:53.928Z,92802.00
2023-01-27T19:31:53.901Z,92800.00
2023-01-27T19:32:53.800Z,92802.00
2023-01-27T19:33:55.143Z,92800.00
2023-01-27T19:34:53.670Z,92798.00
2023-01-27T19:35:53.611Z,92800.00
2023-01-27T19:36:54.283Z,92802.00
2023-01-27T19:37:53.473Z,92808.00
2023-01-27T19:38:53.409Z,92806.00
2023-01-27T19:39:53.337Z,92804.00
2023-01-27T19:40:53.286Z,92802.00
2023-01-27T19:41:53.209Z,92800.00
2023-01-27T19:42:53.143Z,92804.00
2023-01-27T19:43:53.086Z,92802.00
2023-01-27T19:44:53.014Z,92802.00
2023-01-27T19:45:52.999Z,92806.00
2023-01-27T19:46:52.874Z,92802.00
2023-01-27T19:47:53.735Z,92804.00
2023-01-27T19:48:52.738Z,92804.00
2023-01-27T19:49:52.667Z,92806.00
2023-01-27T19:50:52.611Z,92808.00
2023-01-27T19:51:53.234Z,92810.00
2023-01-27T19:52:52.466Z,92810.00
2023-01-27T19:53:52.381Z,92810.00
2023-01-27T19:54:52.319Z,92810.00
2023-01-27T19:55:52.254Z,92808.00
2023-01-27T19:56:52.196Z,92808.00
2023-01-27T19:57:52.122Z,92806.00
2023-01-27T19:58:52.053Z,92808.00
2023-01-27T19:59:51.982Z,92808.00
2023-01-27T20:00:51.944Z,92804.00
2023-01-27T20:01:51.880Z,92802.00
2023-01-27T20:02:51.788Z,92806.00
2023-01-27T20:03:51.717Z,92804.00
2023-01-27T20:04:51.640Z,92804.00
2023-01-27T20:05:51.591Z,92804.00
2023-01-27T20:06:51.506Z,92804.00
2023-01-27T20:07:51.436Z,92804.00
2023-01-27T20:08:51.373Z,92806.00
2023-01-27T20:09:51.318Z,92808.00
2023-01-27T20:10:51.268Z,92808.00
2023-01-27T20:11:51.193Z,92806.00
2023-01-27T20:12:51.138Z,92806.00
2023-01-27T20:13:51.053Z,92806.00
2023-01-27T20:14:50.971Z,92806.00
2023-01-27T20:15:50.919Z,92808.00
2023-01-27T20:16:50.917Z,92808.00
2023-01-27T20:17:50.790Z,92806.00
2023-01-27T20:18:50.728Z,92804.00
2023-01-27T20:19:50.663Z,92802.00
2023-01-27T20:20:50.603Z,92804.00
2023-01-27T20:21:50.546Z,92800.00
2023-01-27T20:22:50.501Z,92802.00
2023-01-27T20:23:50.391Z,92802.00
2023-01-27T20:24:50.341Z,92804.00
2023-01-27T20:25:50.291Z,92804.00
2023-01-27T20:26:50.193Z,92806.00
2023-01-27T20:27:50.157Z,92808.00
2023-01-27T20:28:50.078Z,92812.00
2023-01-27T20:29:50.016Z,92812.00
2023-01-27T20:30:50.075Z,92816.00
2023-01-27T20:31:49.975Z,92816.00
2023-01-27T20:32:49.806Z,92816.00
2023-01-27T20:33:49.762Z,92820.00
2023-01-27T20:34:49.705Z,92820.00
2023-01-27T20:35:49.621Z,92822.00
2023-01-27T20:36:49.575Z,92826.00
2023-01-27T20:37:49.495Z,92824.00
2023-01-27T20:38:49.411Z,92828.00
2023-01-27T20:39:49.338Z,92832.00
2023-01-27T20:40:49.282Z,92830.00
2023-01-27T20:41:49.228Z,92832.00
2023-01-27T20:42:49.160Z,92832.00
2023-01-27T20:43:49.083Z,92830.00
2023-01-27T20:44:49.011Z,92828.00
2023-01-27T20:45:49.045Z,92826.00
2023-01-27T20:46:48.895Z,92828.00
2023-01-27T20:47:48.814Z,92828.00
2023-01-27T20:48:48.765Z,92830.00
2023-01-27T20:49:48.708Z,92828.00
2023-01-27T20:50:48.648Z,92830.00
2023-01-27T20:51:48.569Z,92828.00
2023-01-27T20:52:48.504Z,92828.00
2023-01-27T20:53:48.427Z,92830.00
2023-01-27T20:54:48.353Z,92830.00
2023-01-27T20:55:48.298Z,92830.00
2023-01-27T20:56:48.222Z,92834.00
2023-01-27T20:57:48.174Z,92841.00
2023-01-27T20:58:48.175Z,92843.00
2023-01-27T20:59:48.057Z,92841.00
2023-01-27T21:00:47.969Z,92843.00
2023-01-27T21:01:47.905Z,92845.00
2023-01-27T21:02:47.832Z,92847.00
2023-01-27T21:03:47.769Z,92847.00
2023-01-27T21:04:48.260Z,92845.00
2023-01-27T21:05:47.641Z,92843.00
2023-01-27T21:06:47.559Z,92834.00
2023-01-27T21:07:47.503Z,92834.00
2023-01-27T21:08:47.433Z,92845.00
2023-01-27T21:09:47.363Z,92845.00
2023-01-27T21:10:47.771Z,92851.00
2023-01-27T21:11:47.247Z,92853.00
2023-01-27T21:12:47.162Z,92849.00
2023-01-27T21:13:47.092Z,92849.00
2023-01-27T21:14:47.020Z,92851.00
2023-01-27T21:15:46.956Z,92851.00
2023-01-27T21:16:46.933Z,92849.00
2023-01-27T21:17:46.844Z,92845.00
2023-01-27T21:18:46.767Z,92845.00
2023-01-27T21:19:46.712Z,92843.00
2023-01-27T21:20:46.633Z,92834.00
2023-01-27T21:21:47.261Z,92834.00
2023-01-27T21:22:46.551Z,92834.00
2023-01-27T21:23:46.461Z,92832.00
2023-01-27T21:24:46.466Z,92832.00
2023-01-27T21:25:46.330Z,92828.00
2023-01-27T21:26:46.260Z,92826.00
2023-01-27T21:27:46.197Z,92826.00
2023-01-27T21:28:46.168Z,92826.00
2023-01-27T21:29:46.068Z,92828.00
2023-01-27T21:30:46.118Z,92832.00
2023-01-27T21:31:45.972Z,92832.00
2023-01-27T21:32:45.880Z,92832.00
2023-01-27T21:33:45.828Z,92832.00
2023-01-27T21:34:45.742Z,92834.00
2023-01-27T21:35:45.671Z,92832.00
2023-01-27T21:36:45.598Z,92847.00
2023-01-27T23:58:38.258Z,92798.00
2023-01-27T23:59:38.226Z,92798.00
